Time;durP1;ratioP1;P1;durP2;ratioP2;P2;SDS_P1;SDS_P2;PMS_P1;PMS_P2;Temp;Humidity;BMP_temperature;BMP_pressure;BME280_temperature;BME280_humidity;BME280_pressure;Samples;Min_cycle;Max_cycle;Signal;HPM_P1;HPM_P2
2022/03/02 00:00:15;;;;;;;51.10;20.97;;;-2.90;99.90;;;;;;4997291;28;20029;-74
2022/03/02 00:02:41;;;;;;;46.30;20.63;;;-2.90;99.90;;;;;;5015177;28;20026;-74
2022/03/02 00:05:08;;;;;;;42.90;18.97;;;-3.00;99.90;;;;;;4997238;28;20161;-74
2022/03/02 00:07:34;;;;;;;43.70;18.97;;;-2.90;99.90;;;;;;5014767;28;20022;-73
2022/03/02 00:10:00;;;;;;;39.93;16.07;;;-3.00;99.90;;;;;;5014771;28;20356;-74
2022/03/02 00:12:25;;;;;;;28.60;14.23;;;-3.00;99.90;;;;;;4997098;28;20026;-74
2022/03/02 00:14:51;;;;;;;29.63;14.07;;;-3.00;99.90;;;;;;5014614;28;20026;-75
2022/03/02 00:17:16;;;;;;;28.07;14.13;;;-3.00;99.90;;;;;;5014910;28;20021;-74
2022/03/02 00:19:42;;;;;;;29.43;12.60;;;-3.00;99.90;;;;;;5014818;28;20104;-75
2022/03/02 00:22:08;;;;;;;25.37;12.40;;;-3.00;99.90;;;;;;5014571;28;20034;-75
2022/03/02 00:24:33;;;;;;;28.90;12.53;;;-3.00;99.90;;;;;;5014444;28;20487;-75
2022/03/02 00:26:59;;;;;;;29.27;12.87;;;-3.00;99.90;;;;;;5014870;28;20044;-74
2022/03/02 00:29:25;;;;;;;25.47;12.53;;;-3.00;99.90;;;;;;5014463;28;20109;-74
2022/03/02 00:31:52;;;;;;;25.40;13.03;;;-3.00;99.90;;;;;;5014641;28;20029;-75
2022/03/02 00:34:17;;;;;;;26.17;12.47;;;-3.00;99.90;;;;;;5014244;28;20029;-75
2022/03/02 00:36:43;;;;;;;26.23;12.80;;;-3.00;99.90;;;;;;5014588;28;20025;-75
2022/03/02 00:39:09;;;;;;;22.00;12.20;;;-3.10;99.90;;;;;;5014700;28;20101;-75
2022/03/02 00:41:35;;;;;;;27.50;12.27;;;-3.10;99.90;;;;;;4996108;28;20038;-74
2022/03/02 00:44:02;;;;;;;24.47;11.80;;;-3.20;99.90;;;;;;5014386;28;20028;-75
2022/03/02 00:46:29;;;;;;;26.33;11.20;;;-3.10;99.90;;;;;;5014165;28;20030;-75
2022/03/02 00:49:00;;;;;;;26.40;12.10;;;-3.20;99.90;;;;;;5014672;28;20025;-75
2022/03/02 00:51:26;;;;;;;22.70;11.70;;;-3.30;99.90;;;;;;5014051;28;20053;-75
2022/03/02 00:53:53;;;;;;;28.53;11.53;;;-3.30;99.90;;;;;;5013966;28;20499;-74
2022/03/02 00:56:19;;;;;;;24.27;11.37;;;-3.40;99.90;;;;;;5014013;28;20360;-75
2022/03/02 00:58:45;;;;;;;20.50;10.97;;;-3.40;99.90;;;;;;5014091;28;20026;-75
2022/03/02 01:01:10;;;;;;;25.80;9.67;;;-3.40;99.90;;;;;;4996570;28;20048;-75
2022/03/02 01:03:36;;;;;;;22.93;11.43;;;-3.40;99.90;;;;;;5013748;28;20030;-74
2022/03/02 01:06:03;;;;;;;22.43;10.30;;;-3.50;99.90;;;;;;5013755;28;20032;-75
2022/03/02 01:08:29;;;;;;;24.17;10.53;;;-3.50;99.90;;;;;;4996680;28;20021;-74
2022/03/02 01:10:55;;;;;;;24.37;10.37;;;-3.50;99.90;;;;;;5013629;28;20033;-75
2022/03/02 01:13:20;;;;;;;22.63;11.30;;;-3.60;99.90;;;;;;5013666;28;20064;-74
2022/03/02 01:15:46;;;;;;;20.93;10.63;;;-3.60;99.90;;;;;;5013928;28;20486;-75
2022/03/02 01:18:11;;;;;;;17.73;9.13;;;-3.70;99.90;;;;;;5014374;28;20099;-75
2022/03/02 01:20:37;;;;;;;17.77;9.60;;;-3.70;99.90;;;;;;5013921;28;20029;-75
2022/03/02 01:23:03;;;;;;;20.20;10.23;;;-3.70;99.90;;;;;;5013916;28;20109;-75
2022/03/02 01:25:28;;;;;;;15.37;9.20;;;-3.70;99.90;;;;;;5013821;28;20022;-74
2022/03/02 01:27:54;;;;;;;18.07;9.43;;;-3.70;99.90;;;;;;5014061;28;20022;-74
2022/03/02 01:30:20;;;;;;;17.10;8.93;;;-3.70;99.90;;;;;;5014186;28;20355;-75
2022/03/02 01:32:46;;;;;;;17.30;9.87;;;-3.70;99.90;;;;;;5013532;28;20387;-75
2022/03/02 01:35:12;;;;;;;18.50;9.03;;;-3.70;99.90;;;;;;5014072;28;20021;-75
2022/03/02 01:37:37;;;;;;;16.70;9.43;;;-3.70;99.90;;;;;;4995752;28;20097;-75
2022/03/02 01:40:05;;;;;;;20.93;9.17;;;-3.70;99.90;;;;;;5013276;28;20510;-74
2022/03/02 01:42:30;;;;;;;19.37;9.50;;;-3.70;99.90;;;;;;5013452;28;20022;-75
2022/03/02 01:44:56;;;;;;;19.73;9.73;;;-3.80;99.90;;;;;;5013417;28;20028;-75
2022/03/02 01:47:27;;;;;;;22.30;10.40;;;-3.80;99.90;;;;;;5013737;28;20026;-75
2022/03/02 01:49:53;;;;;;;20.47;9.70;;;-3.80;99.90;;;;;;5013922;28;20034;-75
2022/03/02 01:52:18;;;;;;;20.10;10.03;;;-3.80;99.90;;;;;;5013831;28;20034;-74
2022/03/02 01:54:45;;;;;;;27.83;11.77;;;-3.80;99.90;;;;;;5017344;28;20189;-75
2022/03/02 01:57:11;;;;;;;18.07;10.93;;;-3.80;99.90;;;;;;4999748;28;20053;-74
2022/03/02 01:59:36;;;;;;;19.50;10.40;;;-3.80;99.90;;;;;;4999637;28;20407;-75
2022/03/02 02:02:03;;;;;;;17.77;10.00;;;-3.80;99.90;;;;;;5017500;28;20105;-75
2022/03/02 02:04:28;;;;;;;17.40;9.87;;;-3.90;99.90;;;;;;5017682;28;20065;-74
2022/03/02 02:06:54;;;;;;;19.63;10.63;;;-3.90;99.90;;;;;;5017136;28;20026;-74
2022/03/02 02:09:19;;;;;;;18.13;10.03;;;-3.90;99.90;;;;;;5017082;28;20026;-74
2022/03/02 02:11:45;;;;;;;21.47;9.97;;;-3.90;99.90;;;;;;5017318;28;20026;-74
2022/03/02 02:14:11;;;;;;;21.90;10.50;;;-4.00;99.90;;;;;;4999340;28;20026;-74
2022/03/02 02:16:36;;;;;;;17.23;9.53;;;-4.00;99.90;;;;;;5016811;28;20048;-74
2022/03/02 02:19:02;;;;;;;18.90;10.53;;;-4.00;99.90;;;;;;5017081;28;20018;-75
2022/03/02 02:21:29;;;;;;;17.40;11.03;;;-4.00;99.90;;;;;;5016776;28;20500;-74
2022/03/02 02:23:55;;;;;;;20.13;10.03;;;-4.10;99.90;;;;;;5016792;28;20022;-74
2022/03/02 02:26:21;;;;;;;19.30;9.90;;;-4.10;99.90;;;;;;5016655;28;20037;-74
2022/03/02 02:28:48;;;;;;;14.50;9.63;;;-4.10;99.90;;;;;;4999091;28;20054;-74
2022/03/02 02:31:13;;;;;;;17.00;9.17;;;-4.10;99.90;;;;;;4998960;28;20446;-74
2022/03/02 02:33:39;;;;;;;15.50;9.27;;;-4.10;99.90;;;;;;4999798;28;20117;-74
2022/03/02 02:36:05;;;;;;;17.07;8.97;;;-4.10;99.90;;;;;;5016940;28;20375;-73
2022/03/02 02:38:30;;;;;;;15.10;9.27;;;-4.20;99.90;;;;;;4998805;28;20117;-75
2022/03/02 02:40:56;;;;;;;20.97;9.83;;;-4.20;99.90;;;;;;4997648;28;20145;-74
2022/03/02 02:43:24;;;;;;;14.57;9.07;;;-4.30;99.90;;;;;;5015982;28;20072;-74
2022/03/02 02:45:50;;;;;;;18.60;10.13;;;-4.30;99.90;;;;;;5015192;28;20072;-74
2022/03/02 02:48:16;;;;;;;17.57;9.60;;;-4.30;99.90;;;;;;5015088;28;20030;-74
2022/03/02 02:50:42;;;;;;;16.10;9.00;;;-4.30;99.90;;;;;;4997394;28;20028;-74
2022/03/02 02:53:09;;;;;;;19.27;9.17;;;-4.30;99.90;;;;;;4997889;28;20026;-74
2022/03/02 02:55:36;;;;;;;18.27;9.80;;;-4.30;99.90;;;;;;5015094;28;20042;-74
2022/03/02 02:58:04;;;;;;;18.23;8.83;;;-4.30;99.90;;;;;;4997317;28;20030;-74
2022/03/02 03:00:35;;;;;;;16.70;9.33;;;-4.30;99.90;;;;;;4997386;28;20033;-74
2022/03/02 03:03:01;;;;;;;15.00;9.10;;;-4.30;99.90;;;;;;5014798;28;20022;-74
2022/03/02 03:05:30;;;;;;;18.30;9.70;;;-4.30;99.90;;;;;;5015397;28;20026;-74
2022/03/02 03:07:56;;;;;;;15.67;9.43;;;-4.30;99.90;;;;;;5014952;28;20566;-75
2022/03/02 03:10:23;;;;;;;18.30;9.50;;;-4.40;99.90;;;;;;5014849;28;20025;-75
2022/03/02 03:12:49;;;;;;;15.03;9.20;;;-4.30;99.90;;;;;;5015219;28;20044;-74
2022/03/02 03:15:17;;;;;;;20.10;9.23;;;-4.40;99.90;;;;;;4997204;28;20482;-75
2022/03/02 03:17:43;;;;;;;14.60;8.77;;;-4.40;99.90;;;;;;4997114;28;20029;-75
2022/03/02 03:20:11;;;;;;;18.07;9.80;;;-4.40;99.90;;;;;;5015151;28;20022;-75
2022/03/02 03:22:37;;;;;;;21.97;10.43;;;-4.50;99.90;;;;;;5015504;28;20049;-74
2022/03/02 03:25:04;;;;;;;17.97;10.03;;;-4.50;99.90;;;;;;4997342;28;20108;-75
2022/03/02 03:27:30;;;;;;;19.63;10.10;;;-4.60;99.90;;;;;;5014970;28;20022;-75
2022/03/02 03:29:55;;;;;;;19.43;10.03;;;-4.50;99.90;;;;;;5014860;28;20049;-75
2022/03/02 03:32:22;;;;;;;20.17;10.40;;;-4.60;99.90;;;;;;5014540;28;20017;-74
2022/03/02 03:34:47;;;;;;;21.73;10.73;;;-4.50;99.90;;;;;;5014502;28;20093;-75
2022/03/02 03:37:13;;;;;;;19.03;9.47;;;-4.60;99.90;;;;;;4996870;28;20030;-74
2022/03/02 03:39:39;;;;;;;24.30;11.03;;;-4.60;99.90;;;;;;4977359;28;1069006;-75
2022/03/02 03:42:05;;;;;;;23.50;10.43;;;-4.60;99.90;;;;;;4997879;28;20030;-74
2022/03/02 03:44:30;;;;;;;16.10;9.43;;;-4.70;99.90;;;;;;4997712;28;20482;-74
2022/03/02 03:46:56;;;;;;;22.00;9.73;;;-4.70;99.90;;;;;;5015269;28;20050;-74
2022/03/02 03:49:21;;;;;;;19.00;9.70;;;-4.80;99.90;;;;;;5015621;28;20032;-74
2022/03/02 03:51:47;;;;;;;21.17;9.57;;;-4.80;99.90;;;;;;5015306;28;20026;-74
2022/03/02 03:54:12;;;;;;;18.43;10.53;;;-4.80;99.90;;;;;;5015518;28;20483;-74
2022/03/02 03:56:38;;;;;;;16.87;9.83;;;-4.80;99.90;;;;;;5014946;28;20030;-74
2022/03/02 03:59:04;;;;;;;20.20;10.47;;;-4.80;99.90;;;;;;5014921;28;20354;-75
2022/03/02 04:01:31;;;;;;;17.47;10.93;;;-4.90;99.90;;;;;;5014950;28;20025;-75
2022/03/02 04:03:56;;;;;;;23.07;10.43;;;-4.90;99.90;;;;;;5015175;28;20189;-75
2022/03/02 04:06:22;;;;;;;18.77;10.93;;;-4.90;99.90;;;;;;5014888;28;20148;-75
2022/03/02 04:08:47;;;;;;;14.43;9.37;;;-5.00;99.90;;;;;;5015046;28;20080;-75
2022/03/02 04:11:13;;;;;;;20.27;10.10;;;-5.00;99.90;;;;;;5014873;28;20487;-75
2022/03/02 04:13:39;;;;;;;18.67;10.10;;;-5.00;99.90;;;;;;5014729;28;20421;-75
2022/03/02 04:16:05;;;;;;;43.03;23.10;;;-5.00;99.90;;;;;;5013825;28;20034;-75
2022/03/02 04:18:34;;;;;;;269.60;109.77;;;-5.00;99.90;;;;;;5014594;28;20026;-75
2022/03/02 04:21:00;;;;;;;58.03;28.77;;;-5.00;99.90;;;;;;5014662;28;20451;-75
2022/03/02 04:23:26;;;;;;;34.93;18.87;;;-4.90;99.90;;;;;;4996874;28;20471;-75
2022/03/02 04:25:52;;;;;;;31.83;18.07;;;-4.90;99.90;;;;;;5014923;28;20172;-75
2022/03/02 04:28:18;;;;;;;25.00;14.30;;;-4.90;99.90;;;;;;5014520;28;20109;-76
2022/03/02 04:30:43;;;;;;;28.10;15.93;;;-4.90;99.90;;;;;;4996771;28;20045;-74
2022/03/02 04:33:09;;;;;;;36.73;19.63;;;-4.90;99.90;;;;;;5015118;28;20490;-74
2022/03/02 04:35:35;;;;;;;29.50;15.13;;;-4.80;99.90;;;;;;5014153;28;20095;-74
2022/03/02 04:38:03;;;;;;;26.57;12.27;;;-4.80;99.90;;;;;;4996621;28;20106;-74
2022/03/02 04:40:28;;;;;;;22.47;10.57;;;-4.80;99.90;;;;;;4996420;28;20046;-74
2022/03/02 04:42:54;;;;;;;24.40;10.57;;;-4.90;99.90;;;;;;5014656;28;20563;-74
2022/03/02 04:45:27;;;;;;;17.17;10.17;;;-4.90;99.90;;;;;;4996927;28;20103;-75
2022/03/02 04:47:57;;;;;;;21.43;10.27;;;-4.90;99.90;;;;;;4996576;28;20030;-75
2022/03/02 04:50:23;;;;;;;27.03;10.43;;;-4.90;99.90;;;;;;4996411;28;20022;-75
2022/03/02 04:52:50;;;;;;;20.03;9.73;;;-4.90;99.90;;;;;;4996471;28;20490;-75
2022/03/02 04:55:17;;;;;;;18.40;10.33;;;-4.90;99.90;;;;;;5013841;28;20108;-75
2022/03/02 04:57:46;;;;;;;19.33;9.47;;;-4.90;99.90;;;;;;5014158;28;20451;-76
2022/03/02 05:00:16;;;;;;;17.47;9.27;;;-4.90;99.90;;;;;;5013976;28;20122;-76
2022/03/02 05:02:42;;;;;;;19.97;9.30;;;-4.90;99.90;;;;;;5014379;28;20048;-75
2022/03/02 05:05:11;;;;;;;16.67;8.90;;;-4.90;99.90;;;;;;5014080;28;20484;-76
2022/03/02 05:07:37;;;;;;;18.20;9.37;;;-4.90;99.90;;;;;;5014010;28;20026;-75
2022/03/02 05:10:05;;;;;;;19.80;9.23;;;-4.80;99.90;;;;;;4996245;28;20479;-76
2022/03/02 05:12:31;;;;;;;13.40;9.57;;;-4.80;99.90;;;;;;5013824;28;20025;-75
2022/03/02 05:14:57;;;;;;;15.77;8.33;;;-4.80;99.90;;;;;;4996166;28;20032;-75
2022/03/02 05:17:23;;;;;;;16.47;9.20;;;-4.70;99.90;;;;;;4996374;28;20069;-75
2022/03/02 05:19:52;;;;;;;14.70;8.40;;;-4.60;99.90;;;;;;5014108;28;20018;-75
2022/03/02 05:22:18;;;;;;;17.80;8.87;;;-4.60;99.90;;;;;;5013962;28;20037;-75
2022/03/02 05:24:43;;;;;;;17.77;8.67;;;-4.60;99.90;;;;;;5013945;28;20021;-76
2022/03/02 05:27:09;;;;;;;19.63;9.20;;;-4.50;99.90;;;;;;4995444;28;20093;-79
2022/03/02 05:29:36;;;;;;;14.80;8.33;;;-4.50;99.90;;;;;;5025435;28;20033;-75
2022/03/02 05:32:03;;;;;;;18.67;8.93;;;-4.40;99.90;;;;;;5000503;28;20026;-75
2022/03/02 05:34:28;;;;;;;19.03;9.60;;;-4.40;99.90;;;;;;4995754;28;20053;-75
2022/03/02 05:36:54;;;;;;;22.17;9.23;;;-4.30;99.90;;;;;;4996124;28;20064;-76
2022/03/02 05:39:20;;;;;;;17.63;8.87;;;-4.30;99.90;;;;;;4992856;28;20061;-76
2022/03/02 05:41:45;;;;;;;20.47;9.23;;;-4.30;99.90;;;;;;4993826;28;20422;-76
2022/03/02 05:44:12;;;;;;;15.03;9.10;;;-4.20;99.90;;;;;;4973923;28;20035;-76
2022/03/02 05:46:38;;;;;;;13.27;8.27;;;-4.10;99.90;;;;;;4973759;28;20030;-76
2022/03/02 05:49:05;;;;;;;15.43;8.13;;;-4.10;99.90;;;;;;4975364;28;20031;-76
2022/03/02 05:51:31;;;;;;;22.67;8.97;;;-4.00;99.90;;;;;;4975528;28;20023;-76
2022/03/02 05:53:58;;;;;;;15.80;8.77;;;-4.00;99.90;;;;;;4975205;28;20383;-76
2022/03/02 05:56:24;;;;;;;16.60;9.17;;;-3.90;99.90;;;;;;4993468;28;20105;-75
2022/03/02 05:58:53;;;;;;;17.10;8.57;;;-3.90;99.90;;;;;;4984050;28;20019;-75
2022/03/02 06:01:20;;;;;;;14.93;8.10;;;-3.90;99.90;;;;;;4993232;28;20027;-76
2022/03/02 06:03:46;;;;;;;18.27;8.67;;;-3.90;99.90;;;;;;4993171;28;20076;-76
2022/03/02 06:06:12;;;;;;;17.33;8.87;;;-3.80;99.90;;;;;;4994498;28;20475;-76
2022/03/02 06:08:38;;;;;;;20.37;9.23;;;-3.80;99.90;;;;;;4995893;28;20370;-76
2022/03/02 06:11:05;;;;;;;16.83;8.17;;;-3.80;99.90;;;;;;4994416;28;20019;-78
2022/03/02 06:13:30;;;;;;;18.10;8.43;;;-3.80;99.90;;;;;;4998290;28;20027;-78
2022/03/02 06:16:00;;;;;;;19.40;8.83;;;-3.80;99.90;;;;;;4990456;28;20053;-78
2022/03/02 06:18:26;;;;;;;14.53;8.27;;;-3.80;99.90;;;;;;4977767;28;20058;-78
2022/03/02 06:20:52;;;;;;;23.97;10.33;;;-3.90;99.90;;;;;;4976011;28;20023;-78
2022/03/02 06:23:20;;;;;;;16.00;8.60;;;-3.90;99.90;;;;;;4976925;28;20353;-77
2022/03/02 06:25:47;;;;;;;18.67;10.43;;;-3.90;99.90;;;;;;4980102;28;20034;-77
2022/03/02 06:28:12;;;;;;;21.00;9.53;;;-4.00;99.90;;;;;;4979584;28;20034;-78
2022/03/02 06:30:38;;;;;;;18.97;9.10;;;-3.90;99.90;;;;;;4980457;28;20169;-78
2022/03/02 06:33:04;;;;;;;17.67;8.97;;;-3.90;99.90;;;;;;4979517;28;20030;-78
2022/03/02 06:35:29;;;;;;;17.37;8.50;;;-3.90;99.90;;;;;;4979884;28;20037;-78
2022/03/02 06:37:55;;;;;;;14.87;9.00;;;-3.90;99.90;;;;;;4980251;28;20033;-77
2022/03/02 06:40:21;;;;;;;21.50;9.20;;;-3.80;99.90;;;;;;4996273;28;20452;-77
2022/03/02 06:42:59;;;;;;;14.37;8.07;;;-3.80;99.90;;;;;;5019111;28;20048;-78
2022/03/02 06:45:32;;;;;;;18.07;8.97;;;-3.80;99.90;;;;;;5021936;28;20049;-77
2022/03/02 06:48:08;;;;;;;17.37;9.10;;;-3.80;99.90;;;;;;5008117;28;20040;-77
2022/03/02 06:50:37;;;;;;;16.03;8.60;;;-3.70;99.90;;;;;;5025504;28;20049;-77
2022/03/02 06:53:03;;;;;;;20.97;8.90;;;-3.60;99.90;;;;;;5026427;28;20072;-77
2022/03/02 06:55:30;;;;;;;21.80;8.23;;;-3.60;99.90;;;;;;5008502;28;20048;-77
2022/03/02 06:57:57;;;;;;;16.80;8.57;;;-3.60;99.90;;;;;;5025581;28;20026;-77
2022/03/02 07:00:24;;;;;;;20.03;9.10;;;-3.50;99.90;;;;;;5025951;28;20018;-77
2022/03/02 07:02:55;;;;;;;17.27;9.30;;;-3.50;99.90;;;;;;5025259;28;20026;-77
2022/03/02 07:05:21;;;;;;;17.10;9.23;;;-3.50;99.90;;;;;;5025751;28;20098;-77
2022/03/02 07:07:48;;;;;;;20.47;10.07;;;-3.40;99.90;;;;;;5025511;28;20026;-77
2022/03/02 07:10:14;;;;;;;17.53;10.00;;;-3.40;99.90;;;;;;5026497;28;20024;-77
2022/03/02 07:12:40;;;;;;;15.63;9.80;;;-3.40;99.90;;;;;;5027154;28;20022;-77
2022/03/02 07:15:08;;;;;;;19.97;9.93;;;-3.30;99.90;;;;;;5024624;28;20022;-77
2022/03/02 07:17:33;;;;;;;18.50;8.70;;;-3.20;99.90;;;;;;5023595;28;20037;-77
2022/03/02 07:20:00;;;;;;;15.67;8.97;;;-3.10;99.90;;;;;;5002043;28;20112;-77
2022/03/02 07:22:31;;;;;;;19.37;8.97;;;-3.00;99.90;;;;;;5019488;28;20022;-77
2022/03/02 07:25:02;;;;;;;19.10;9.23;;;-2.90;99.90;;;;;;5019486;28;20064;-77
2022/03/02 07:27:29;;;;;;;17.37;9.37;;;-2.80;99.90;;;;;;5019912;28;20026;-77
2022/03/02 07:29:55;;;;;;;19.27;9.10;;;-2.70;99.90;;;;;;5002346;28;20053;-78
2022/03/02 07:32:27;;;;;;;13.77;8.50;;;-2.60;99.90;;;;;;5002918;28;20029;-77
2022/03/02 07:34:58;;;;;;;20.97;8.77;;;-2.40;99.90;;;;;;5019865;28;20116;-77
2022/03/02 07:37:26;;;;;;;19.87;9.20;;;-2.20;99.90;;;;;;5020957;28;20018;-77
2022/03/02 07:39:51;;;;;;;17.20;8.83;;;-2.10;99.90;;;;;;5019514;28;20038;-77
2022/03/02 07:42:19;;;;;;;16.73;9.67;;;-2.00;99.90;;;;;;5019924;28;20026;-77
2022/03/02 07:44:46;;;;;;;21.43;10.20;;;-1.80;99.90;;;;;;5020004;28;20025;-77
2022/03/02 07:47:12;;;;;;;25.13;9.53;;;-1.70;99.90;;;;;;5019383;28;20080;-77
2022/03/02 07:49:38;;;;;;;16.57;9.33;;;-1.60;99.90;;;;;;5017800;28;20022;-79
2022/03/02 07:52:05;;;;;;;18.13;9.43;;;-1.40;99.90;;;;;;5022026;28;20149;-76
2022/03/02 07:54:35;;;;;;;16.30;8.00;;;-1.30;99.90;;;;;;5018794;28;20022;-77
2022/03/02 07:57:01;;;;;;;20.60;8.90;;;-1.10;99.90;;;;;;5002659;28;20029;-77
2022/03/02 07:59:32;;;;;;;21.10;9.07;;;-0.90;99.90;;;;;;5021564;28;20034;-77
2022/03/02 08:01:58;;;;;;;15.27;8.53;;;-0.70;99.90;;;;;;5017556;28;20022;-77
2022/03/02 08:04:24;;;;;;;15.87;9.03;;;-0.50;99.90;;;;;;5021274;28;20109;-77
2022/03/02 08:06:51;;;;;;;14.90;7.50;;;-0.20;99.90;;;;;;5021299;28;20370;-77
2022/03/02 08:09:16;;;;;;;12.97;7.40;;;0.00;99.90;;;;;;5020763;28;20010;-78
2022/03/02 08:11:42;;;;;;;10.63;7.23;;;0.10;99.90;;;;;;5020963;28;20105;-77
2022/03/02 08:14:08;;;;;;;13.33;6.70;;;0.30;99.90;;;;;;5020923;28;20022;-77
2022/03/02 08:16:34;;;;;;;13.03;6.57;;;0.30;99.90;;;;;;5021414;28;20024;-78
2022/03/02 08:19:01;;;;;;;16.43;7.30;;;0.50;99.90;;;;;;5021163;28;20022;-77
2022/03/02 08:21:30;;;;;;;11.20;6.93;;;0.60;99.90;;;;;;5004131;28;20048;-78
2022/03/02 08:23:57;;;;;;;41.93;19.60;;;0.80;99.90;;;;;;5022070;28;20017;-78
2022/03/02 08:26:24;;;;;;;12.37;6.77;;;0.90;99.90;;;;;;5021316;28;20053;-78
2022/03/02 08:28:55;;;;;;;14.57;5.77;;;1.20;99.90;;;;;;5027883;28;20029;-79
2022/03/02 08:31:25;;;;;;;11.07;8.03;;;1.30;99.90;;;;;;5024330;28;20022;-79
2022/03/02 08:33:51;;;;;;;12.17;6.70;;;1.50;99.90;;;;;;5014170;28;20379;-78
2022/03/02 08:36:21;;;;;;;15.00;6.70;;;1.90;99.90;;;;;;5027763;28;20022;-79
2022/03/02 08:38:49;;;;;;;11.57;6.50;;;2.00;99.90;;;;;;5022777;28;20069;-79
2022/03/02 08:41:17;;;;;;;13.27;6.97;;;2.10;99.90;;;;;;5021132;28;20048;-79
2022/03/02 08:43:44;;;;;;;24.13;7.27;;;2.20;99.90;;;;;;5022760;28;20033;-79
2022/03/02 08:46:10;;;;;;;14.70;6.80;;;2.30;99.90;;;;;;5021665;28;20053;-79
2022/03/02 08:48:35;;;;;;;15.30;6.33;;;2.90;99.90;;;;;;5005848;28;20037;-79
2022/03/02 08:51:02;;;;;;;11.67;6.07;;;3.20;99.90;;;;;;5015812;28;20057;-76
2022/03/02 08:53:29;;;;;;;14.53;6.80;;;3.40;99.90;;;;;;4996507;28;20030;-76
2022/03/02 08:55:57;;;;;;;15.73;7.00;;;3.50;99.90;;;;;;5013997;28;20030;-76
2022/03/02 08:58:24;;;;;;;27.83;9.03;;;3.60;99.90;;;;;;5014034;28;20061;-76
2022/03/02 09:00:52;;;;;;;15.07;7.53;;;3.90;99.90;;;;;;5013907;28;20129;-77
2022/03/02 09:03:19;;;;;;;24.07;7.60;;;3.80;99.90;;;;;;4995718;28;20018;-77
2022/03/02 09:05:46;;;;;;;26.63;8.13;;;3.90;99.90;;;;;;4996402;28;20114;-77
2022/03/02 09:08:12;;;;;;;25.10;8.83;;;3.80;99.90;;;;;;4996300;28;20471;-76
2022/03/02 09:10:37;;;;;;;17.60;7.50;;;4.00;99.90;;;;;;5014151;28;20355;-76
2022/03/02 09:13:04;;;;;;;21.10;8.23;;;4.30;99.90;;;;;;4996225;28;20037;-76
2022/03/02 09:15:29;;;;;;;19.63;8.13;;;4.50;99.90;;;;;;5013772;28;20034;-76
2022/03/02 09:17:56;;;;;;;16.40;7.87;;;4.70;99.90;;;;;;5014166;28;20033;-76
2022/03/02 09:20:23;;;;;;;17.60;9.30;;;4.60;99.90;;;;;;4996092;28;20029;-76
2022/03/02 09:22:50;;;;;;;23.90;9.73;;;4.60;99.90;;;;;;5013752;28;20526;-76
2022/03/02 09:25:16;;;;;;;22.97;9.97;;;4.60;99.90;;;;;;5013985;28;20060;-76
2022/03/02 09:27:42;;;;;;;18.63;9.90;;;4.60;99.90;;;;;;5013684;28;20034;-77
2022/03/02 09:30:09;;;;;;;20.57;11.43;;;4.40;99.90;;;;;;4996431;28;20351;-77
2022/03/02 09:32:40;;;;;;;21.83;11.53;;;4.60;99.90;;;;;;5013791;28;20121;-77
2022/03/02 09:35:10;;;;;;;19.73;11.80;;;4.70;99.90;;;;;;4995990;28;20395;-77
2022/03/02 09:37:37;;;;;;;19.77;11.30;;;4.80;99.90;;;;;;5013900;28;20018;-76
2022/03/02 09:40:05;;;;;;;16.57;9.87;;;5.10;99.90;;;;;;4992477;28;20126;-77
2022/03/02 09:42:39;;;;;;;17.40;10.17;;;5.20;99.90;;;;;;4993842;28;20026;-77
2022/03/02 09:45:08;;;;;;;20.47;10.00;;;5.30;99.90;;;;;;4993850;28;20026;-76
2022/03/02 09:47:43;;;;;;;19.07;9.73;;;5.50;99.90;;;;;;4993647;28;20034;-76
2022/03/02 09:50:12;;;;;;;;;;;5.60;99.90;;;;;;4994215;28;20026;-76
2022/03/02 09:52:41;;;;;;;15.17;8.37;;;5.70;99.90;;;;;;4994108;28;19912;-76
2022/03/02 09:55:12;;;;;;;27.63;10.97;;;5.80;99.90;;;;;;4993743;28;20037;-76
2022/03/02 09:57:44;;;;;;;19.93;8.57;;;5.80;99.90;;;;;;4993756;28;20015;-76
2022/03/02 10:00:11;;;;;;;19.13;9.83;;;5.80;99.90;;;;;;4993756;28;20018;-76
2022/03/02 10:02:38;;;;;;;17.57;9.60;;;5.80;99.90;;;;;;4992395;28;20029;-77
2022/03/02 10:05:10;;;;;;;11.53;7.57;;;6.00;99.90;;;;;;4993787;28;20027;-75
2022/03/02 10:07:40;;;;;;;17.10;9.03;;;6.30;99.90;;;;;;4993960;28;20030;-75
2022/03/02 10:10:11;;;;;;;17.73;9.07;;;6.70;99.90;;;;;;4994042;28;20026;-76
2022/03/02 10:12:38;;;;;;;16.20;8.30;;;6.70;99.90;;;;;;4994107;28;20026;-76
2022/03/02 10:15:07;;;;;;;17.37;8.70;;;6.70;99.90;;;;;;4995412;28;20503;-76
2022/03/02 10:17:38;;;;;;;19.37;9.63;;;6.60;99.90;;;;;;4997513;28;20438;-77
2022/03/02 10:20:08;;;;;;;16.47;9.30;;;6.60;99.90;;;;;;4997513;28;20379;-77
2022/03/02 10:23:05;;;;;;;18.97;10.70;;;6.60;99.90;;;;;;4997735;28;20046;-77
2022/03/02 10:25:50;;;;;;;25.37;12.23;;;6.80;99.90;;;;;;4996139;28;20464;-77
2022/03/02 10:28:31;;;;;;;44.20;22.73;;;6.80;99.90;;;;;;4996697;28;20383;-77
2022/03/02 10:31:13;;;;;;;18.63;9.10;;;7.00;99.90;;;;;;4996562;28;20031;-76
2022/03/02 10:33:55;;;;;;;23.67;9.73;;;7.20;99.90;;;;;;4997150;28;20040;-75
2022/03/02 10:36:25;;;;;;;19.13;9.00;;;7.00;99.30;;;;;;4995758;28;20031;-75
2022/03/02 10:39:00;;;;;;;16.37;8.27;;;7.00;99.20;;;;;;4996345;28;20137;-76
2022/03/02 10:41:29;;;;;;;16.70;9.75;;;6.80;99.10;;;;;;5016870;28;20026;-76
2022/03/02 10:44:02;;;;;;;15.27;8.70;;;6.80;99.60;;;;;;5016557;28;20030;-76
2022/03/02 10:46:28;;;;;;;14.33;8.40;;;6.70;99.60;;;;;;5016545;28;20032;-76
2022/03/02 10:49:15;;;;;;;15.60;8.30;;;6.50;99.00;;;;;;5017160;28;20484;-76
2022/03/02 10:51:43;;;;;;;14.40;6.90;;;6.40;98.90;;;;;;4998772;28;20034;-76
2022/03/02 10:54:10;;;;;;;10.13;7.53;;;6.30;98.40;;;;;;5016702;28;20076;-76
2022/03/02 10:56:38;;;;;;;13.03;7.13;;;6.20;98.40;;;;;;4998642;28;20041;-76
2022/03/02 10:59:11;;;;;;;12.40;7.90;;;6.20;98.80;;;;;;5016952;28;20022;-76
2022/03/02 11:01:37;;;;;;;14.53;8.67;;;6.10;99.90;;;;;;5016206;28;20415;-76
2022/03/02 11:04:05;;;;;;;12.73;8.10;;;5.90;99.90;;;;;;5016515;28;20411;-76
2022/03/02 11:06:32;;;;;;;12.73;7.00;;;6.00;99.90;;;;;;5016457;28;20121;-76
2022/03/02 11:09:00;;;;;;;22.57;7.77;;;6.20;99.20;;;;;;4998399;28;20045;-76
2022/03/02 11:11:26;;;;;;;15.63;8.73;;;6.20;99.30;;;;;;5016019;28;20033;-76
2022/03/02 11:13:54;;;;;;;12.77;7.33;;;6.20;98.90;;;;;;5016223;28;20096;-76
2022/03/02 11:16:22;;;;;;;10.53;6.50;;;6.20;98.80;;;;;;5015860;28;20038;-69
2022/03/02 11:18:52;;;;;;;15.07;6.63;;;6.10;98.90;;;;;;5015620;28;20076;-76
2022/03/02 11:21:32;;;;;;;14.00;6.93;;;6.10;98.80;;;;;;5015862;28;20026;-76
2022/03/02 11:24:01;;;;;;;15.77;7.37;;;6.20;97.90;;;;;;5014531;28;20026;-79
2022/03/02 11:26:34;;;;;;;13.50;8.13;;;6.30;97.50;;;;;;5013500;28;20532;-79
2022/03/02 11:29:02;;;;;;;9.13;6.07;;;6.20;97.70;;;;;;5012728;28;20037;-79
2022/03/02 11:31:31;;;;;;;13.33;7.87;;;6.30;96.60;;;;;;5013170;28;20087;-80
2022/03/02 11:34:16;;;;;;;10.73;6.70;;;6.20;96.60;;;;;;4995723;28;20025;-80
2022/03/02 11:36:45;;;;;;;11.17;6.83;;;6.40;97.50;;;;;;5013389;28;20079;-80
2022/03/02 11:39:12;;;;;;;12.63;6.30;;;6.50;97.70;;;;;;5012875;28;20295;-81
2022/03/02 11:41:41;;;;;;;10.83;6.50;;;6.50;98.00;;;;;;5012910;28;20490;-80
2022/03/02 11:44:33;;;;;;;10.33;6.10;;;6.70;98.50;;;;;;5012992;28;20041;-80
2022/03/02 11:47:03;;;;;;;12.00;6.70;;;7.20;96.90;;;;;;4999230;28;20044;-80
2022/03/02 11:49:46;;;;;;;15.00;6.47;;;7.30;96.20;;;;;;4995476;28;20038;-80
2022/03/02 11:52:22;;;;;;;10.27;6.33;;;7.40;95.50;;;;;;5011712;28;20083;-80
2022/03/02 11:54:49;;;;;;;10.50;6.63;;;7.40;95.20;;;;;;5008695;28;20486;-80
2022/03/02 11:57:17;;;;;;;13.23;6.77;;;7.30;94.90;;;;;;5012072;28;20090;-81
2022/03/02 11:59:44;;;;;;;17.00;7.33;;;7.20;95.50;;;;;;4994595;28;20462;-80
2022/03/02 12:02:23;;;;;;;15.97;7.40;;;7.20;95.20;;;;;;4994261;28;20041;-80
2022/03/02 12:05:08;;;;;;;11.23;6.47;;;7.10;95.80;;;;;;5012396;28;20053;-80
2022/03/02 12:07:47;;;;;;;11.30;7.28;;;6.90;96.60;;;;;;4994369;28;20024;-80
2022/03/02 12:10:27;;;;;;;10.13;6.30;;;6.90;96.30;;;;;;5011940;28;20092;-80
2022/03/02 12:12:54;;;;;;;12.17;6.90;;;6.90;95.20;;;;;;5011331;28;20061;-80
2022/03/02 12:15:22;;;;;;;10.10;6.93;;;6.80;95.40;;;;;;4994456;28;20038;-79
2022/03/02 12:17:49;;;;;;;13.50;9.10;;;6.80;95.00;;;;;;5012363;28;20478;-79
2022/03/02 12:20:22;;;;;;;12.63;7.73;;;6.70;95.40;;;;;;5011972;28;20368;-79
2022/03/02 12:22:50;;;;;;;14.70;8.53;;;6.60;96.00;;;;;;4994477;28;20713;-78
2022/03/02 12:25:19;;;;;;;16.37;8.40;;;6.80;94.40;;;;;;5010500;28;20040;-80
2022/03/02 12:27:59;;;;;;;11.83;6.60;;;6.70;94.60;;;;;;4993134;28;20565;-80
2022/03/02 12:30:28;;;;;;;12.33;6.80;;;6.70;94.10;;;;;;4994215;28;20092;-79
2022/03/02 12:32:57;;;;;;;14.17;7.70;;;7.00;94.50;;;;;;5012045;28;20033;-79
2022/03/02 12:35:23;;;;;;;23.17;13.37;;;7.10;94.40;;;;;;5012290;28;20189;-80
2022/03/02 12:37:51;;;;;;;14.67;7.70;;;7.00;94.90;;;;;;5011410;28;20041;-80
2022/03/02 12:40:17;;;;;;;18.37;10.77;;;6.90;94.70;;;;;;4994631;28;20052;-80